.
WxDataArchive / Data Records for 2016-05-16
2016-05-15 May 2016 2016-05-17

Data Records for Monday, 16 May 2016

Time	Temp	Chill	HIndex	Humid	Dewpt	 Wind 	HiWind	WindDir	Rain 	Barom
-----	----	-----	------	-----	-----	------	------	-------	-----	-----
00:00	37.8	37.8	37.8	69	28.6	0	0	---	0.00	30.163 
00:05	38.0	38.0	38.0	69	28.7	0	0	---	0.00	30.163 
00:10	38.2	38.2	38.2	68	28.6	0	0	---	0.00	30.163 
00:15	38.3	38.3	38.3	67	28.3	0	0	---	0.00	30.160 
00:20	38.6	38.6	38.6	65	27.9	0	0	---	0.00	30.160 
00:25	38.8	38.8	38.8	65	28.1	0	0	---	0.00	30.160 
00:30	38.9	38.9	38.9	64	27.8	0	0	---	0.00	30.160 
00:35	39.2	39.2	39.2	63	27.7	0	0	---	0.00	30.160 
00:40	39.2	39.2	39.2	64	28.1	0	0	---	0.00	30.160 
00:45	39.3	39.3	39.3	63	27.8	0	0	---	0.00	30.160 
00:50	39.3	39.3	39.3	63	27.8	0	0	---	0.00	30.160 
00:55	39.3	39.3	39.3	62	27.4	0	0	---	0.00	30.160 
01:00	39.3	39.3	39.3	62	27.4	0	0	---	0.00	30.160 
01:05	39.3	39.3	39.3	63	27.8	0	0	---	0.00	30.160 
01:10	39.2	39.2	39.2	63	27.7	0	0	---	0.00	30.160 
01:15	39.2	39.2	39.2	63	27.7	0	0	---	0.00	30.158 
01:20	39.1	39.1	39.1	63	27.6	0	0	---	0.00	30.158 
01:25	38.8	38.8	38.8	63	27.3	0	0	---	0.00	30.158 
01:30	38.6	38.6	38.6	64	27.5	0	0	---	0.00	30.158 
01:35	38.5	38.5	38.5	64	27.4	0	0	---	0.00	30.158 
01:40	38.3	38.3	38.3	65	27.6	0	0	---	0.00	30.158 
01:45	38.2	38.2	38.2	65	27.5	0	0	---	0.00	30.159 
01:50	38.0	38.0	38.0	65	27.3	0	0	---	0.00	30.159 
01:55	38.0	38.0	38.0	65	27.3	0	0	---	0.00	30.159 
02:00	37.9	37.9	37.9	66	27.6	0	0	---	0.00	30.158 
02:05	37.9	37.9	37.9	66	27.6	0	0	---	0.00	30.158 
02:10	37.8	37.8	37.8	66	27.5	0	0	---	0.00	30.158 
02:15	37.8	37.8	37.8	67	27.8	0	0	---	0.00	30.156 
02:20	37.9	37.9	37.9	66	27.6	0	0	---	0.00	30.156 
02:25	38.0	38.0	38.0	66	27.7	0	0	---	0.00	30.156 
02:30	38.0	38.0	38.0	65	27.3	0	0	---	0.00	30.157 
02:35	38.3	38.3	38.3	65	27.6	0	0	---	0.00	30.157 
02:40	38.3	38.3	38.3	64	27.2	0	1	248	0.00	30.157 
02:45	38.5	38.5	38.5	64	27.4	0	0	---	0.00	30.154 
02:50	38.6	38.6	38.6	64	27.5	0	0	---	0.00	30.154 
02:55	38.6	38.6	38.6	64	27.5	0	0	---	0.00	30.154 
03:00	38.6	38.6	38.6	64	27.5	0	0	---	0.00	30.148 
03:05	38.6	38.6	38.6	63	27.1	0	1	248	0.00	30.148 
03:10	38.6	38.6	38.6	63	27.1	0	0	---	0.00	30.148 
03:15	38.8	38.8	38.8	63	27.3	0	0	---	0.00	30.145 
03:20	38.8	38.8	38.8	63	27.3	0	0	---	0.00	30.145 
03:25	38.8	38.8	38.8	62	26.9	0	0	---	0.00	30.145 
03:30	38.9	38.9	38.9	62	27.0	0	1	248	0.00	30.146 
03:35	38.9	38.9	38.9	62	27.0	0	1	248	0.00	30.146 
03:40	39.1	39.1	39.1	62	27.2	0	0	---	0.00	30.146 
03:45	39.1	39.1	39.1	62	27.2	0	0	---	0.00	30.148 
03:50	39.1	39.1	39.1	62	27.2	0	1	248	0.00	30.148 
03:55	39.1	39.1	39.1	62	27.2	0	1	248	0.00	30.148 
04:00	39.2	39.2	39.2	62	27.3	0	1	248	0.00	30.149 
04:05	39.2	39.2	39.2	62	27.3	0	1	248	0.00	30.149 
04:10	39.1	39.1	39.1	62	27.2	0	0	---	0.00	30.149 
04:15	39.1	39.1	39.1	62	27.2	0	1	248	0.00	30.147 
04:20	39.1	39.1	39.1	62	27.2	0	1	248	0.00	30.147 
04:25	39.1	39.1	39.1	62	27.2	0	1	248	0.00	30.147 
04:30	39.1	39.1	39.1	62	27.2	0	0	---	0.00	30.147 
04:35	39.1	39.1	39.1	62	27.2	0	0	---	0.00	30.147 
04:40	39.1	39.1	39.1	62	27.2	0	1	248	0.00	30.147 
04:45	39.1	39.1	39.1	62	27.2	0	1	248	0.00	30.149 
04:50	39.1	39.1	39.1	62	27.2	0	1	248	0.00	30.149 
04:55	39.1	39.1	39.1	62	27.2	0	0	---	0.00	30.149 
05:00	38.9	38.9	38.9	62	27.0	0	1	248	0.00	30.146 
05:05	38.9	38.9	38.9	62	27.0	0	0	---	0.00	30.146 
05:10	38.9	38.9	38.9	62	27.0	0	0	---	0.00	30.146 
05:15	38.9	38.9	38.9	62	27.0	0	1	248	0.00	30.146 
05:20	38.9	38.9	38.9	62	27.0	0	1	248	0.00	30.146 
05:25	38.9	38.9	38.9	62	27.0	0	0	---	0.00	30.146 
05:30	38.9	38.9	38.9	63	27.4	0	0	---	0.00	30.147 
05:35	38.9	38.9	38.9	63	27.4	0	0	---	0.00	30.147 
05:40	38.8	38.8	38.8	63	27.3	0	0	---	0.00	30.147 
05:45	38.8	38.8	38.8	63	27.3	0	0	---	0.00	30.148 
05:50	38.8	38.8	38.8	64	27.7	0	0	---	0.00	30.148 
05:55	38.6	38.6	38.6	65	27.9	0	0	---	0.00	30.148 
06:00	38.5	38.5	38.5	65	27.8	0	0	---	0.00	30.147 
06:05	38.3	38.3	38.3	65	27.6	0	0	---	0.00	30.147 
06:10	38.2	38.2	38.2	65	27.5	0	0	---	0.00	30.147 
06:15	38.0	38.0	38.0	66	27.7	0	0	---	0.00	30.152 
06:20	38.0	38.0	38.0	66	27.7	0	0	---	0.00	30.152 
06:25	37.9	37.9	37.9	67	27.9	0	0	---	0.00	30.152 
06:30	37.9	37.9	37.9	67	27.9	0	0	---	0.00	30.160 
06:35	37.8	37.8	37.8	68	28.2	0	0	---	0.00	30.160 
06:40	37.8	37.8	37.8	68	28.2	0	0	---	0.00	30.160 
06:45	37.9	37.9	37.9	68	28.3	0	1	248	0.00	30.163 
06:50	38.0	38.0	38.0	68	28.4	0	0	---	0.00	30.163 
06:55	38.2	38.2	38.2	68	28.6	0	0	---	0.00	30.163 
07:00	38.3	38.3	38.3	67	28.3	0	1	248	0.00	30.164 
07:05	38.6	38.6	38.6	67	28.6	0	0	---	0.00	30.164 
07:10	38.9	38.9	38.9	67	28.9	0	0	---	0.00	30.164 
07:15	39.2	39.2	39.2	66	28.8	0	0	---	0.00	30.164 
07:20	39.5	39.5	39.5	66	29.1	0	1	248	0.00	30.164 
07:25	39.8	39.8	39.8	65	29.0	0	1	248	0.00	30.164 
07:30	40.2	40.2	40.2	64	29.0	0	1	248	0.00	30.170 
07:35	40.6	40.6	40.6	64	29.4	0	0	---	0.00	30.170 
07:40	41.2	41.2	41.2	63	29.6	0	1	248	0.00	30.170 
07:45	42.1	42.1	42.1	62	30.0	0	2	248	0.00	30.173 
07:50	42.9	42.9	42.9	59	29.6	0	1	248	0.00	30.173 
07:55	43.8	43.8	43.8	59	30.4	0	1	248	0.00	30.173 
08:00	44.6	44.6	44.6	56	29.9	0	1	248	0.00	30.172 
08:05	45.2	45.2	45.2	54	29.6	0	2	248	0.00	30.172 
08:10	45.8	45.8	45.8	55	30.6	0	1	248	0.00	30.172 
08:15	46.2	46.2	46.2	53	30.0	0	2	248	0.00	30.176 
08:20	46.5	46.5	46.5	52	29.8	0	2	248	0.00	30.176 
08:25	47.3	47.3	47.3	54	31.5	0	1	248	0.00	30.176 
08:30	48.2	48.2	48.2	51	30.9	0	2	248	0.00	30.174 
08:35	48.6	48.6	48.6	51	31.3	0	1	248	0.00	30.174 
08:40	49.2	49.2	49.2	50	31.4	0	2	248	0.00	30.174 
08:45	49.9	49.9	49.9	49	31.5	0	1	248	0.00	30.173 
08:50	50.7	50.7	50.7	48	31.7	0	1	248	0.00	30.173 
08:55	51.3	51.3	51.3	48	32.3	0	1	248	0.00	30.173 
09:00	51.7	51.7	51.7	47	32.1	0	1	248	0.00	30.174 
09:05	52.0	52.0	52.0	46	31.9	0	2	248	0.00	30.174 
09:10	52.5	52.5	52.5	46	32.3	0	3	248	0.00	30.174 
09:15	52.8	52.8	52.8	45	32.1	0	2	0	0.00	30.178 
09:20	52.8	52.8	52.8	42	30.3	1	3	338	0.00	30.178 
09:25	52.9	52.9	52.9	45	32.1	0	3	292	0.00	30.178 
09:30	53.5	53.5	53.5	45	32.7	0	2	292	0.00	30.177 
09:35	54.2	54.2	54.2	42	31.6	1	7	292	0.00	30.177 
09:40	54.5	54.5	54.5	42	31.9	0	3	22	0.00	30.177 
09:45	54.5	54.5	54.5	43	32.5	0	3	338	0.00	30.173 
09:50	55.0	55.0	55.0	42	32.3	0	1	338	0.00	30.173 
09:55	55.6	55.6	55.6	42	32.9	0	3	248	0.00	30.173 
10:00	55.6	55.6	55.6	41	32.3	0	2	248	0.00	30.177 
10:05	55.7	55.7	55.7	44	34.1	0	3	248	0.00	30.177 
10:10	56.2	56.2	56.2	45	35.1	0	2	248	0.00	30.177 
10:15	56.5	56.5	56.5	42	33.7	1	5	248	0.00	30.178 
10:20	56.9	56.9	56.9	42	34.0	1	4	248	0.00	30.178 
10:25	57.0	57.0	57.0	42	34.1	0	2	248	0.00	30.178 
10:30	57.5	57.5	57.5	42	34.6	0	2	248	0.00	30.170 
10:35	57.6	57.6	57.6	40	33.5	0	2	248	0.00	30.170 
10:40	57.8	57.8	57.8	40	33.6	0	4	248	0.00	30.170 
10:45	57.5	57.5	57.5	38	32.1	1	4	248	0.00	30.170 
10:50	57.2	57.2	57.2	39	32.5	2	6	292	0.00	30.170 
10:55	57.3	57.3	57.3	39	32.6	1	5	292	0.00	30.170 
11:00	57.5	57.5	57.5	40	33.4	1	3	292	0.00	30.173 
11:05	57.6	57.6	57.6	41	34.1	1	5	292	0.00	30.173 
11:10	57.6	57.6	57.6	40	33.5	2	5	270	0.00	30.173 
11:15	57.6	57.6	57.6	39	32.8	1	4	270	0.00	30.169 
11:20	58.3	58.3	58.3	43	35.9	1	5	68	0.00	30.169 
11:25	58.7	58.7	58.7	42	35.7	1	3	225	0.00	30.169 
11:30	58.7	58.7	58.7	42	35.7	0	3	248	0.00	30.168 
11:35	58.7	58.7	58.7	43	36.3	1	3	248	0.00	30.168 
11:40	59.2	59.2	59.2	39	34.3	1	3	225	0.00	30.168 
11:45	59.5	59.5	59.5	40	35.2	1	3	225	0.00	30.166 
11:50	59.6	59.6	59.6	39	34.6	1	4	248	0.00	30.166 
11:55	60.1	60.1	60.1	40	35.7	0	3	248	0.00	30.166 
12:00	60.5	60.5	60.5	39	35.4	1	3	248	0.00	30.152 
12:05	61.0	61.0	61.0	38	35.2	1	7	45	0.00	30.152 
12:10	61.3	61.3	61.3	42	38.0	1	4	270	0.00	30.152 
12:15	61.8	61.8	61.8	36	34.6	1	4	270	0.00	30.151 
12:20	61.8	61.8	61.8	39	36.6	1	5	270	0.00	30.151 
12:25	62.0	62.0	62.0	41	38.0	1	4	292	0.00	30.151 
12:30	62.3	62.3	62.3	38	36.4	1	4	292	0.00	30.149 
12:35	62.4	62.4	62.4	38	36.5	1	6	248	0.00	30.149 
12:40	62.1	62.1	62.1	39	36.8	1	3	270	0.00	30.149 
12:45	62.0	62.0	62.0	41	38.0	0	3	180	0.00	30.146 
12:50	62.1	62.1	62.1	38	36.2	1	6	315	0.00	30.146 
12:55	62.6	62.6	62.6	37	36.0	1	4	270	0.00	30.146 
13:00	62.7	62.7	62.7	39	37.4	1	3	270	0.00	30.138 
13:05	63.2	63.2	63.2	38	37.2	1	3	270	0.00	30.138 
13:10	63.4	63.4	63.4	38	37.3	1	3	270	0.00	30.138 
13:15	63.7	63.7	63.7	40	38.9	1	4	22	0.00	30.134 
13:20	64.0	64.0	64.0	39	38.5	0	2	45	0.00	30.134 
13:25	64.0	64.0	64.0	37	37.2	1	3	45	0.00	30.134 
13:30	64.5	64.5	64.5	39	39.0	1	4	202	0.00	30.131 
13:35	64.5	64.5	64.5	35	36.2	2	6	292	0.00	30.131 
13:40	64.5	64.5	64.5	37	37.6	1	2	292	0.00	30.131 
13:45	64.8	64.8	64.8	40	39.9	1	3	292	0.00	30.129 
13:50	64.7	64.7	64.7	38	38.5	1	6	270	0.00	30.129 
13:55	64.5	64.5	64.5	35	36.2	1	5	270	0.00	30.129 
14:00	64.5	64.5	64.5	38	38.3	0	2	270	0.00	30.117 
14:05	64.5	64.5	64.5	42	40.9	1	3	270	0.00	30.117 
14:10	64.7	64.7	64.7	39	39.2	1	4	270	0.00	30.117 
14:15	64.7	64.7	64.7	37	37.8	1	5	270	0.00	30.115 
14:20	64.7	64.7	64.7	41	40.5	1	5	270	0.00	30.115 
14:25	64.8	64.8	64.8	39	39.3	1	5	90	0.00	30.115 
14:30	64.7	64.7	64.7	37	37.8	2	7	315	0.00	30.114 
14:35	64.7	64.7	64.7	37	37.8	1	5	292	0.00	30.114 
14:40	64.8	64.8	64.8	38	38.6	2	5	292	0.00	30.114 
14:45	64.8	64.8	64.8	38	38.6	1	5	292	0.00	30.110 
14:50	65.0	65.0	65.0	39	39.4	1	3	292	0.00	30.110 
14:55	64.8	64.8	64.8	37	37.9	2	6	292	0.00	30.110 
15:00	64.7	64.7	64.7	39	39.2	2	6	292	0.00	30.108 
15:05	65.0	65.0	65.0	38	38.8	1	5	292	0.00	30.108 
15:10	65.5	65.5	65.5	38	39.2	0	1	248	0.00	30.108 
15:15	65.8	65.8	65.8	38	39.5	0	2	248	0.00	30.105 
15:20	66.0	66.0	66.0	37	39.0	1	4	292	0.00	30.105 
15:25	65.6	65.6	65.6	37	38.6	1	3	292	0.00	30.105 
15:30	65.6	65.6	65.6	38	39.3	1	6	292	0.00	30.099 
15:35	66.0	66.0	66.0	38	39.7	1	3	292	0.00	30.099 
15:40	66.1	66.1	66.1	35	37.6	1	5	292	0.00	30.099 
15:45	66.4	66.4	66.4	35	37.9	2	6	292	0.00	30.098 
15:50	66.4	66.4	66.4	36	38.6	1	4	292	0.00	30.098 
15:55	66.6	66.6	66.6	36	38.8	1	4	270	0.00	30.098 
16:00	66.6	66.6	66.6	39	40.9	1	3	338	0.00	30.095 
16:05	66.6	66.6	66.6	37	39.5	1	6	292	0.00	30.095 
16:10	66.3	66.3	66.3	36	38.5	1	4	292	0.00	30.095 
16:15	66.3	66.3	66.3	38	39.9	1	2	292	0.00	30.096 
16:20	66.0	66.0	66.0	37	39.0	1	6	292	0.00	30.096 
16:25	66.0	66.0	66.0	39	40.3	0	2	292	0.00	30.096 
16:30	66.3	66.3	66.3	36	38.5	1	4	248	0.00	30.095 
16:35	66.3	66.3	66.3	35	37.8	1	3	248	0.00	30.095 
16:40	66.1	66.1	66.1	36	38.4	1	5	248	0.00	30.095 
16:45	65.2	65.2	65.2	38	38.9	1	5	292	0.00	30.096 
16:50	64.8	64.8	64.8	39	39.3	0	2	270	0.00	30.096 
16:55	64.7	64.7	64.7	38	38.5	0	3	292	0.00	30.096 
17:00	64.7	64.7	64.7	40	39.8	1	4	292	0.00	30.096 
17:05	64.8	64.8	64.8	39	39.3	1	4	270	0.00	30.096 
17:10	65.0	65.0	65.0	41	40.7	0	5	338	0.00	30.096 
17:15	65.2	65.2	65.2	38	38.9	0	2	248	0.00	30.088 
17:20	65.3	65.3	65.3	39	39.7	1	4	248	0.00	30.088 
17:25	65.3	65.3	65.3	38	39.0	0	4	248	0.00	30.088 
17:30	65.0	65.0	65.0	38	38.8	0	2	248	0.00	30.085 
17:35	64.7	64.7	64.7	38	38.5	0	2	248	0.00	30.085 
17:40	64.5	64.5	64.5	39	39.0	0	4	248	0.00	30.085 
17:45	64.2	64.2	64.2	40	39.4	0	4	248	0.00	30.088 
17:50	63.9	63.9	63.9	40	39.1	0	2	248	0.00	30.088 
17:55	63.7	63.7	63.7	40	38.9	0	2	248	0.00	30.088 
18:00	63.7	63.7	63.7	39	38.3	0	2	248	0.00	30.089 
18:05	63.9	63.9	63.9	40	39.1	0	3	248	0.00	30.089 
18:10	63.9	63.9	63.9	41	39.7	0	1	248	0.00	30.089 
18:15	63.9	63.9	63.9	41	39.7	0	2	270	0.00	30.093 
18:20	63.9	63.9	63.9	40	39.1	1	3	270	0.00	30.093 
18:25	63.7	63.7	63.7	42	40.2	0	2	248	0.00	30.093 
18:30	63.5	63.5	63.5	41	39.4	0	2	248	0.00	30.096 
18:35	63.4	63.4	63.4	40	38.7	0	2	270	0.00	30.096 
18:40	63.2	63.2	63.2	40	38.5	0	2	270	0.00	30.096 
18:45	63.1	63.1	63.1	40	38.4	0	4	270	0.00	30.098 
18:50	62.9	62.9	62.9	41	38.8	0	1	338	0.00	30.098 
18:55	62.7	62.7	62.7	41	38.7	0	2	338	0.00	30.098 
19:00	62.7	62.7	62.7	42	39.3	0	1	338	0.00	30.094 
19:05	62.7	62.7	62.7	42	39.3	0	1	338	0.00	30.094 
19:10	62.7	62.7	62.7	41	38.7	0	2	338	0.00	30.094 
19:15	62.7	62.7	62.7	43	39.9	0	2	338	0.00	30.086 
19:20	62.7	62.7	62.7	42	39.3	0	2	338	0.00	30.086 
19:25	62.7	62.7	62.7	42	39.3	0	1	338	0.00	30.086 
19:30	62.6	62.6	62.6	42	39.2	0	2	338	0.00	30.091 
19:35	62.4	62.4	62.4	42	39.0	0	3	338	0.00	30.091 
19:40	62.3	62.3	62.3	42	38.9	0	2	338	0.00	30.091 
19:45	62.1	62.1	62.1	42	38.7	0	4	338	0.00	30.094 
19:50	61.8	61.8	61.8	43	39.1	0	2	292	0.00	30.094 
19:55	61.8	61.8	61.8	43	39.1	0	1	292	0.00	30.094 
20:00	61.6	61.6	61.6	43	38.9	0	1	292	0.00	30.094 
20:05	61.5	61.5	61.5	43	38.8	0	3	292	0.00	30.094 
20:10	61.5	61.5	61.5	43	38.8	0	1	270	0.00	30.094 
20:15	61.3	61.3	61.3	44	39.2	0	4	270	0.00	30.090 
20:20	61.2	61.2	61.2	44	39.1	0	3	270	0.00	30.090 
20:25	61.0	61.0	61.0	44	38.9	0	2	270	0.00	30.090 
20:30	60.7	60.7	60.7	45	39.2	0	4	315	0.00	30.092 
20:35	60.5	60.5	60.5	46	39.6	0	1	315	0.00	30.092 
20:40	60.4	60.4	60.4	46	39.5	0	1	315	0.00	30.092 
20:45	60.1	60.1	60.1	46	39.2	0	1	315	0.00	30.093 
20:50	59.9	59.9	59.9	46	39.1	0	1	315	0.00	30.093 
20:55	59.9	59.9	59.9	46	39.1	0	1	315	0.00	30.093 
21:00	59.8	59.8	59.8	46	39.0	0	3	315	0.00	30.097 
21:05	59.6	59.6	59.6	46	38.8	0	1	315	0.00	30.097 
21:10	59.6	59.6	59.6	47	39.3	0	0	---	0.00	30.097 
21:15	59.5	59.5	59.5	47	39.3	0	1	315	0.00	30.098 
21:20	59.3	59.3	59.3	48	39.6	0	1	315	0.00	30.098 
21:25	59.2	59.2	59.2	48	39.5	0	1	315	0.00	30.098 
21:30	59.0	59.0	59.0	49	39.9	0	1	315	0.00	30.099 
21:35	58.9	58.9	58.9	49	39.8	0	0	---	0.00	30.099 
21:40	58.9	58.9	58.9	50	40.3	0	1	315	0.00	30.099 
21:45	58.7	58.7	58.7	50	40.1	0	1	315	0.00	30.102 
21:50	58.7	58.7	58.7	50	40.1	0	1	315	0.00	30.102 
21:55	58.6	58.6	58.6	50	40.0	0	1	315	0.00	30.102 
22:00	58.6	58.6	58.6	50	40.0	0	1	315	0.00	30.103 
22:05	58.4	58.4	58.4	51	40.3	0	1	315	0.00	30.103 
22:10	58.3	58.3	58.3	51	40.3	0	0	---	0.00	30.103 
22:15	58.3	58.3	58.3	51	40.3	0	0	---	0.00	30.103 
22:20	58.1	58.1	58.1	52	40.6	0	1	315	0.00	30.103 
22:25	58.0	58.0	58.0	52	40.5	0	1	315	0.00	30.103 
22:30	58.0	58.0	58.0	51	40.0	0	2	315	0.00	30.104 
22:35	58.0	58.0	58.0	52	40.5	0	1	315	0.00	30.104 
22:40	58.0	58.0	58.0	51	40.0	0	1	315	0.00	30.104 
22:45	58.0	58.0	58.0	51	40.0	0	0	---	0.00	30.107 
22:50	58.0	58.0	58.0	52	40.5	0	1	315	0.00	30.107 
22:55	57.8	57.8	57.8	52	40.3	0	1	315	0.00	30.107 
23:00	57.8	57.8	57.8	52	40.3	0	2	315	0.00	30.111 
23:05	57.6	57.6	57.6	51	39.6	0	0	---	0.00	30.111 
23:10	57.6	57.6	57.6	52	40.1	0	0	---	0.00	30.111 
23:15	57.6	57.6	57.6	52	40.1	0	1	315	0.00	30.114 
23:20	57.5	57.5	57.5	52	40.0	0	1	315	0.00	30.114 
23:25	57.5	57.5	57.5	51	39.5	0	3	315	0.00	30.114 
23:30	57.5	57.5	57.5	52	40.0	0	1	315	0.00	30.117 
23:35	57.5	57.5	57.5	52	40.0	0	1	315	0.00	30.117 
23:40	57.5	57.5	57.5	52	40.0	0	0	---	0.00	30.117 
23:45	57.3	57.3	57.3	53	40.3	0	1	315	0.00	30.119 
23:50	57.3	57.3	57.3	53	40.3	0	0	---	0.00	30.119 
23:55	57.2	57.2	57.2	53	40.2	0	0	---	0.00	30.119 

CoCoRaHS
IN-AL-39
A2 Web Hosting
Creative Commons License
GoDaddy
search engine by freefind advanced

loaded 2018-11-14 04:47:36 • last modified 2010-11-18 10:43:29
Privacy PolicyDisclaimer
• wx.awcolley.com is powered by PmWiki v.2002016 •
• all content (unless otherwise noted) © 2018 A W Colley